Time;durP1;ratioP1;P1;durP2;ratioP2;P2;SDS_P1;SDS_P2;PMS_P1;PMS_P2;Temp;Humidity;BMP_temperature;BMP_pressure;BME280_temperature;BME280_humidity;BME280_pressure;Samples;Min_cycle;Max_cycle;Signal;HPM_P1;HPM_P2
2023/04/12 00:00:10;;;;;;;2.45;1.35;;;20.50;67.30;;;;;;5016182;28;20660;-57
2023/04/12 00:02:37;;;;;;;3.72;1.70;;;20.40;67.10;;;;;;5012200;28;20261;-58
2023/04/12 00:05:04;;;;;;;2.25;1.50;;;20.50;67.30;;;;;;5017568;28;20193;-55
2023/04/12 00:07:32;;;;;;;5.70;1.40;;;20.40;67.10;;;;;;5017788;28;20262;-55
2023/04/12 00:09:59;;;;;;;4.60;1.40;;;20.40;67.10;;;;;;5008835;28;20196;-57
2023/04/12 00:12:26;;;;;;;3.58;1.60;;;20.40;67.30;;;;;;5015514;28;20196;-57
2023/04/12 00:14:52;;;;;;;3.30;1.65;;;20.40;67.40;;;;;;5014934;28;20204;-57
2023/04/12 00:17:19;;;;;;;4.55;1.98;;;20.40;67.30;;;;;;5016673;28;20279;-57
2023/04/12 00:19:48;;;;;;;2.38;1.52;;;20.40;67.30;;;;;;5014308;28;20628;-55
2023/04/12 00:22:15;;;;;;;4.18;1.73;;;20.40;67.30;;;;;;5017299;28;20217;-58
2023/04/12 00:24:43;;;;;;;1.95;1.60;;;20.40;67.30;;;;;;5015282;28;20207;-56
2023/04/12 00:27:10;;;;;;;3.55;2.00;;;20.40;67.30;;;;;;5019617;28;20208;-57
2023/04/12 00:29:37;;;;;;;2.10;1.45;;;20.40;67.30;;;;;;5014547;28;20259;-56
2023/04/12 00:32:04;;;;;;;2.35;1.65;;;20.40;67.40;;;;;;5013460;28;20197;-57
2023/04/12 00:34:31;;;;;;;2.20;1.20;;;20.40;67.40;;;;;;5015615;28;20193;-57
2023/04/12 00:36:58;;;;;;;2.63;1.50;;;20.30;67.40;;;;;;5013184;28;20201;-55
2023/04/12 00:39:26;;;;;;;3.08;1.42;;;20.30;67.30;;;;;;5014822;28;20709;-56
2023/04/12 00:41:55;;;;;;;4.00;2.30;;;20.30;67.40;;;;;;5016374;28;20207;-57
2023/04/12 00:44:22;;;;;;;3.30;1.20;;;20.30;67.40;;;;;;5016210;28;20617;-58
2023/04/12 00:46:49;;;;;;;2.38;1.60;;;20.30;67.40;;;;;;5009364;28;20205;-57
2023/04/12 00:49:16;;;;;;;2.45;1.50;;;20.30;67.40;;;;;;5020608;28;20221;-57
2023/04/12 00:51:43;;;;;;;3.42;1.70;;;20.30;67.40;;;;;;5017959;28;20295;-57
2023/04/12 00:54:10;;;;;;;3.55;1.65;;;20.30;67.40;;;;;;5020520;28;20612;-57
2023/04/12 00:56:39;;;;;;;2.03;1.52;;;20.30;67.50;;;;;;5019792;28;20239;-57
2023/04/12 00:59:07;;;;;;;3.72;1.52;;;20.30;67.50;;;;;;5014363;28;20299;-57
2023/04/12 01:01:34;;;;;;;3.15;1.70;;;20.30;67.40;;;;;;5022550;28;20196;-57
2023/04/12 01:04:03;;;;;;;1.95;1.52;;;20.30;67.50;;;;;;5021492;28;20203;-57
2023/04/12 01:06:38;;;;;;;3.08;1.15;;;20.30;67.50;;;;;;5016057;28;20249;-58
2023/04/12 01:09:15;;;;;;;3.35;1.30;;;20.20;67.50;;;;;;5016321;28;20263;-57
2023/04/12 01:11:45;;;;;;;2.35;1.20;;;20.30;67.50;;;;;;5021371;28;20207;-57
2023/04/12 01:14:21;;;;;;;3.25;1.85;;;20.30;67.60;;;;;;5011227;28;20975;-56
2023/04/12 01:16:50;;;;;;;3.60;1.35;;;20.20;67.50;;;;;;5011677;28;20211;-57
2023/04/12 01:19:33;;;;;;;2.78;1.30;;;20.20;67.50;;;;;;5015092;28;20640;-56
2023/04/12 01:22:13;;;;;;;2.88;1.77;;;20.20;67.40;;;;;;5008703;28;20323;-58
2023/04/12 01:24:51;;;;;;;7.97;1.63;;;20.20;67.40;;;;;;5009593;28;20300;-56
2023/04/12 01:27:34;;;;;;;1.73;1.42;;;20.20;67.50;;;;;;5017845;28;20226;-57
2023/04/12 01:30:06;;;;;;;2.53;1.73;;;20.20;67.50;;;;;;5009575;28;20200;-55
2023/04/12 01:32:36;;;;;;;4.30;2.03;;;20.20;67.50;;;;;;5010449;28;20617;-58
2023/04/12 01:35:07;;;;;;;2.63;1.17;;;20.20;67.50;;;;;;5014634;28;20573;-57
2023/04/12 01:37:34;;;;;;;1.90;1.30;;;20.20;67.50;;;;;;5010378;28;20242;-57
2023/04/12 01:40:04;;;;;;;2.75;1.33;;;20.20;67.60;;;;;;5010239;28;20212;-56
2023/04/12 01:42:32;;;;;;;3.40;1.75;;;20.10;67.40;;;;;;5018126;28;20540;-57
2023/04/12 01:44:59;;;;;;;2.75;1.45;;;20.10;67.40;;;;;;5013293;28;20251;-56
2023/04/12 01:47:26;;;;;;;2.50;1.40;;;20.10;67.50;;;;;;5012585;28;22921;-56
2023/04/12 01:50:03;;;;;;;2.00;1.42;;;20.20;67.70;;;;;;5009471;28;20200;-56
2023/04/12 01:52:35;;;;;;;1.58;1.23;;;20.10;67.50;;;;;;5020307;28;20207;-57
2023/04/12 01:55:04;;;;;;;2.10;1.40;;;20.10;67.50;;;;;;5017515;28;20624;-57
2023/04/12 01:57:33;;;;;;;6.03;2.00;;;20.10;67.60;;;;;;5012969;28;20204;-57
2023/04/12 02:00:05;;;;;;;2.63;1.10;;;20.10;67.60;;;;;;5011195;28;20196;-57
2023/04/12 02:02:32;;;;;;;1.50;1.10;;;20.10;67.60;;;;;;5014575;28;20200;-57
2023/04/12 02:05:01;;;;;;;2.35;1.08;;;20.10;67.60;;;;;;5016559;28;20223;-57
2023/04/12 02:07:29;;;;;;;3.63;1.90;;;20.10;67.60;;;;;;5013359;28;20682;-57
2023/04/12 02:09:55;;;;;;;7.07;1.80;;;20.10;67.60;;;;;;5028014;28;20668;-57
2023/04/12 02:12:23;;;;;;;2.88;1.65;;;20.10;67.60;;;;;;5018699;28;20277;-57
2023/04/12 02:14:51;;;;;;;2.17;1.27;;;20.10;67.60;;;;;;5014256;28;20196;-58
2023/04/12 02:17:18;;;;;;;3.75;1.50;;;20.10;67.60;;;;;;5015108;28;20200;-57
2023/04/12 02:19:46;;;;;;;1.92;1.10;;;20.10;67.60;;;;;;5015755;28;20259;-57
2023/04/12 02:22:12;;;;;;;2.20;1.33;;;20.00;67.50;;;;;;5018529;28;20298;-57
2023/04/12 02:24:40;;;;;;;1.95;1.35;;;20.10;67.60;;;;;;5019911;28;20284;-56
2023/04/12 02:27:06;;;;;;;1.58;1.10;;;20.00;67.50;;;;;;5017310;28;20197;-58
2023/04/12 02:29:33;;;;;;;4.15;2.33;;;20.00;67.60;;;;;;5016621;28;20201;-57
2023/04/12 02:32:01;;;;;;;2.55;1.65;;;20.00;67.50;;;;;;5013208;28;20247;-58
2023/04/12 02:34:32;;;;;;;1.88;1.25;;;20.10;67.70;;;;;;5019016;28;20200;-57
2023/04/12 02:36:59;;;;;;;1.85;1.42;;;20.10;67.70;;;;;;5022864;28;20252;-55
2023/04/12 02:39:28;;;;;;;2.50;1.63;;;20.00;67.60;;;;;;5017028;28;20220;-56
2023/04/12 02:41:55;;;;;;;1.38;1.27;;;20.00;67.60;;;;;;5014666;28;20724;-57
2023/04/12 02:44:22;;;;;;;2.72;1.33;;;20.00;67.50;;;;;;5017832;28;20288;-57
2023/04/12 02:46:48;;;;;;;6.28;1.90;;;20.00;67.60;;;;;;5021730;28;20216;-56
2023/04/12 02:49:16;;;;;;;2.22;1.52;;;20.00;67.60;;;;;;5013555;28;20209;-56
2023/04/12 02:51:43;;;;;;;4.72;1.70;;;20.00;67.60;;;;;;5023311;28;20268;-55
2023/04/12 02:54:10;;;;;;;3.25;1.50;;;20.00;67.60;;;;;;5017024;28;20209;-57
2023/04/12 02:56:37;;;;;;;2.00;1.30;;;20.00;67.50;;;;;;5015292;28;20303;-56
2023/04/12 02:59:03;;;;;;;3.17;1.58;;;20.00;67.60;;;;;;5017847;28;20215;-54
2023/04/12 03:01:30;;;;;;;4.30;1.58;;;20.00;67.60;;;;;;5013482;28;20199;-57
2023/04/12 03:03:57;;;;;;;2.58;1.70;;;20.00;67.60;;;;;;5019564;28;20196;-55
2023/04/12 03:06:25;;;;;;;1.92;1.10;;;20.00;68.40;;;;;;5016468;28;20209;-56
2023/04/12 03:08:52;;;;;;;2.17;1.15;;;20.00;67.50;;;;;;5015575;28;20200;-56
2023/04/12 03:11:18;;;;;;;2.60;1.30;;;20.00;67.50;;;;;;5017245;28;20250;-56
2023/04/12 03:13:45;;;;;;;1.70;1.42;;;20.00;67.60;;;;;;5014656;28;20644;-57
2023/04/12 03:16:31;;;;;;;2.33;1.77;;;20.00;67.60;;;;;;5013312;28;20197;-56
2023/04/12 03:18:58;;;;;;;2.70;1.45;;;20.00;67.50;;;;;;5017988;28;20220;-56
2023/04/12 03:21:27;;;;;;;2.80;1.65;;;19.90;67.30;;;;;;5017870;28;20199;-57
2023/04/12 03:23:53;;;;;;;1.30;0.90;;;19.90;67.50;;;;;;5022039;28;20203;-57
2023/04/12 03:26:20;;;;;;;1.20;1.10;;;19.90;67.50;;;;;;5012583;28;20684;-57
2023/04/12 03:28:47;;;;;;;2.65;1.20;;;19.90;67.50;;;;;;5013842;28;20212;-57
2023/04/12 03:31:14;;;;;;;3.22;1.70;;;19.90;67.50;;;;;;5021764;28;20710;-56
2023/04/12 03:33:40;;;;;;;2.78;1.35;;;19.90;67.50;;;;;;5016150;28;20237;-57
2023/04/12 03:36:09;;;;;;;3.05;2.00;;;19.90;67.50;;;;;;5014809;28;20211;-57
2023/04/12 03:38:37;;;;;;;1.40;0.95;;;19.90;67.30;;;;;;5012901;28;20216;-56
2023/04/12 03:41:03;;;;;;;3.03;1.30;;;19.90;67.30;;;;;;5015631;28;20204;-55
2023/04/12 03:43:34;;;;;;;1.95;1.33;;;19.90;67.40;;;;;;5013718;28;20208;-56
2023/04/12 03:46:01;;;;;;;1.48;1.00;;;19.90;67.40;;;;;;5016347;28;20216;-55
2023/04/12 03:48:28;;;;;;;1.40;1.00;;;19.90;67.40;;;;;;5022365;28;22446;-57
2023/04/12 03:50:54;;;;;;;1.45;1.10;;;19.90;67.30;;;;;;5019361;28;20257;-57
2023/04/12 03:53:22;;;;;;;2.47;1.50;;;19.90;67.30;;;;;;5018477;28;20197;-57
2023/04/12 03:55:50;;;;;;;2.95;1.50;;;19.90;67.30;;;;;;5022691;28;20219;-57
2023/04/12 03:58:17;;;;;;;2.03;1.40;;;19.90;67.40;;;;;;5018168;28;20219;-55
2023/04/12 04:00:45;;;;;;;1.98;1.40;;;19.90;67.30;;;;;;5011385;28;20680;-57
2023/04/12 04:03:12;;;;;;;3.03;1.83;;;19.90;67.30;;;;;;5013257;28;20205;-57
2023/04/12 04:05:39;;;;;;;1.77;1.20;;;19.80;67.20;;;;;;5013309;28;20573;-57
2023/04/12 04:08:07;;;;;;;3.50;1.67;;;19.80;67.30;;;;;;5013932;28;20204;-57
2023/04/12 04:10:34;;;;;;;2.33;1.50;;;19.80;67.30;;;;;;5023680;28;20193;-56
2023/04/12 04:13:02;;;;;;;1.73;1.08;;;19.80;67.20;;;;;;5015311;28;20220;-54
2023/04/12 04:15:29;;;;;;;2.38;1.27;;;19.80;67.20;;;;;;5012812;28;20196;-58
2023/04/12 04:17:56;;;;;;;2.10;1.15;;;19.80;67.20;;;;;;5018784;28;20282;-56
2023/04/12 04:20:22;;;;;;;1.67;1.10;;;19.80;67.20;;;;;;5022670;28;20220;-57
2023/04/12 04:22:52;;;;;;;2.15;1.10;;;19.80;67.20;;;;;;5016461;28;20227;-56
2023/04/12 04:25:18;;;;;;;1.90;1.10;;;19.80;67.20;;;;;;5019148;28;20196;-57
2023/04/12 04:27:45;;;;;;;1.92;1.15;;;19.80;67.20;;;;;;5023328;28;20557;-55
2023/04/12 04:30:15;;;;;;;1.70;1.30;;;19.80;67.20;;;;;;5013996;28;20220;-57
2023/04/12 04:32:42;;;;;;;1.67;1.35;;;19.80;67.20;;;;;;5016128;28;20201;-55
2023/04/12 04:35:09;;;;;;;1.55;1.00;;;19.80;67.30;;;;;;5013872;28;20637;-56
2023/04/12 04:37:36;;;;;;;1.80;1.20;;;19.80;67.20;;;;;;5017076;28;20200;-57
2023/04/12 04:40:06;;;;;;;1.15;0.88;;;19.80;67.20;;;;;;5009846;28;20235;-57
2023/04/12 04:42:33;;;;;;;1.90;1.33;;;19.80;67.30;;;;;;5015492;28;20223;-57
2023/04/12 04:45:03;;;;;;;3.00;1.30;;;19.80;67.20;;;;;;5013728;28;20207;-56
2023/04/12 04:47:31;;;;;;;1.10;0.90;;;19.70;67.80;;;;;;5021465;28;20307;-56
2023/04/12 04:49:59;;;;;;;1.40;1.02;;;19.80;67.20;;;;;;5011263;28;20205;-57
2023/04/12 04:52:26;;;;;;;1.30;1.08;;;19.70;67.00;;;;;;5012962;28;20235;-57
2023/04/12 04:54:56;;;;;;;2.00;1.10;;;19.80;67.20;;;;;;5018573;28;20258;-58
2023/04/12 04:57:23;;;;;;;3.08;1.25;;;19.70;67.10;;;;;;5016039;28;20572;-57
2023/04/12 04:59:49;;;;;;;3.20;1.30;;;19.70;67.10;;;;;;5014036;28;20261;-55
2023/04/12 05:02:16;;;;;;;2.72;1.42;;;19.70;67.10;;;;;;5013169;28;20203;-56
2023/04/12 05:04:44;;;;;;;1.73;0.90;;;19.70;67.10;;;;;;5017566;28;20196;-57
2023/04/12 05:07:12;;;;;;;4.15;1.40;;;19.70;67.10;;;;;;5012474;28;20192;-57
2023/04/12 05:09:38;;;;;;;1.50;1.20;;;19.70;67.10;;;;;;5012218;28;20593;-54
2023/04/12 05:12:05;;;;;;;2.13;1.20;;;19.70;67.10;;;;;;5010778;28;20192;-55
2023/04/12 05:14:33;;;;;;;2.85;1.20;;;19.70;67.00;;;;;;5012230;28;20815;-56
2023/04/12 05:17:00;;;;;;;1.85;1.20;;;19.70;67.00;;;;;;5010880;28;20193;-56
2023/04/12 05:19:26;;;;;;;2.45;1.10;;;19.70;67.10;;;;;;5013828;28;20228;-56
2023/04/12 05:21:55;;;;;;;1.98;1.50;;;19.70;67.90;;;;;;5010973;28;20220;-55
2023/04/12 05:24:21;;;;;;;1.95;1.10;;;19.70;67.50;;;;;;5009651;28;20287;-56
2023/04/12 05:26:48;;;;;;;2.67;1.20;;;19.70;67.20;;;;;;5017274;28;20196;-55
2023/04/12 05:29:15;;;;;;;1.85;1.02;;;19.70;67.30;;;;;;5014566;28;20315;-56
2023/04/12 05:31:41;;;;;;;1.50;1.25;;;19.70;67.30;;;;;;5014300;28;20261;-57
2023/04/12 05:34:08;;;;;;;2.45;1.27;;;19.70;67.20;;;;;;5015723;28;20205;-55
2023/04/12 05:36:35;;;;;;;1.75;1.20;;;19.70;67.20;;;;;;5012523;28;20223;-55
2023/04/12 05:39:03;;;;;;;9.48;2.30;;;19.70;67.30;;;;;;5009513;28;20220;-57
2023/04/12 05:41:30;;;;;;;1.00;0.80;;;19.70;67.40;;;;;;5010214;28;20203;-52
2023/04/12 05:43:56;;;;;;;2.25;1.30;;;19.70;67.20;;;;;;5015469;28;20204;-55
2023/04/12 05:46:23;;;;;;;1.77;1.25;;;19.70;67.40;;;;;;5010639;28;20208;-58
2023/04/12 05:48:50;;;;;;;1.48;1.10;;;19.70;67.40;;;;;;5016908;28;20820;-57
2023/04/12 05:51:16;;;;;;;2.60;1.33;;;19.70;67.40;;;;;;5008494;28;20211;-57
2023/04/12 05:53:43;;;;;;;1.52;1.10;;;19.70;67.80;;;;;;5017894;28;20196;-56
2023/04/12 05:56:11;;;;;;;1.58;1.17;;;19.60;67.20;;;;;;5016466;28;20201;-53
2023/04/12 05:58:38;;;;;;;1.98;1.08;;;19.60;67.30;;;;;;5011196;28;20200;-56
2023/04/12 06:01:05;;;;;;;3.90;1.60;;;19.70;67.30;;;;;;5019994;28;20294;-52
2023/04/12 06:03:32;;;;;;;2.00;1.00;;;19.60;67.30;;;;;;5015764;28;20192;-55
2023/04/12 06:05:58;;;;;;;2.50;1.10;;;19.60;67.30;;;;;;5016292;28;20246;-55
2023/04/12 06:08:28;;;;;;;1.83;1.20;;;19.60;67.30;;;;;;5008298;28;20206;-55
2023/04/12 06:10:55;;;;;;;3.22;1.50;;;19.60;67.30;;;;;;5019792;28;20200;-54
2023/04/12 06:13:23;;;;;;;1.25;1.05;;;19.60;67.30;;;;;;5016943;28;22491;-54
2023/04/12 06:15:49;;;;;;;1.85;1.27;;;19.60;67.30;;;;;;5015807;28;20205;-54
2023/04/12 06:18:16;;;;;;;2.50;1.55;;;19.60;67.30;;;;;;5018382;28;21280;-55
2023/04/12 06:20:43;;;;;;;1.60;1.10;;;19.60;67.30;;;;;;5014923;28;20640;-55
2023/04/12 06:23:09;;;;;;;2.25;1.50;;;19.60;67.40;;;;;;5018734;28;20623;-52
2023/04/12 06:25:37;;;;;;;2.25;1.23;;;19.60;67.30;;;;;;5018687;28;20592;-55
2023/04/12 06:28:04;;;;;;;1.23;1.13;;;19.60;67.40;;;;;;5013861;28;20216;-55
2023/04/12 06:30:32;;;;;;;2.47;1.10;;;19.60;67.30;;;;;;5016241;28;20243;-52
2023/04/12 06:32:59;;;;;;;1.77;1.02;;;19.60;67.30;;;;;;5018593;28;20208;-52
2023/04/12 06:35:26;;;;;;;1.35;1.15;;;19.60;67.20;;;;;;5006527;28;20214;-52
2023/04/12 06:37:52;;;;;;;1.77;1.10;;;19.60;67.20;;;;;;5008887;28;20203;-53
2023/04/12 06:40:19;;;;;;;1.40;1.00;;;19.60;67.30;;;;;;5007569;28;20228;-55
2023/04/12 06:42:46;;;;;;;1.75;1.08;;;19.60;67.30;;;;;;5013885;28;20688;-54
2023/04/12 06:45:13;;;;;;;2.90;1.00;;;19.50;67.10;;;;;;5010642;28;20196;-52
2023/04/12 06:47:41;;;;;;;1.33;0.85;;;19.60;67.30;;;;;;5020827;28;20200;-56
2023/04/12 06:50:08;;;;;;;1.40;1.30;;;19.50;67.10;;;;;;5014383;28;20196;-52
2023/04/12 06:52:35;;;;;;;1.30;1.00;;;19.50;67.10;;;;;;5015208;28;20200;-55
2023/04/12 06:55:01;;;;;;;1.40;1.17;;;19.50;67.10;;;;;;5018696;28;20253;-54
2023/04/12 06:57:28;;;;;;;1.35;1.00;;;19.50;67.10;;;;;;5009630;28;20202;-53
2023/04/12 06:59:55;;;;;;;2.30;1.48;;;19.50;67.00;;;;;;5018897;28;20224;-56
2023/04/12 07:02:21;;;;;;;2.50;0.90;;;19.50;67.20;;;;;;5013342;28;20203;-52
2023/04/12 07:04:53;;;;;;;1.67;1.23;;;19.50;67.10;;;;;;5015093;28;20204;-55
2023/04/12 07:07:20;;;;;;;1.60;1.00;;;19.50;67.10;;;;;;5012558;28;20316;-52
2023/04/12 07:09:47;;;;;;;3.65;1.10;;;19.60;67.30;;;;;;5014282;28;20208;-56
2023/04/12 07:12:14;;;;;;;2.63;1.20;;;19.60;67.20;;;;;;5019352;28;20599;-53
2023/04/12 07:14:40;;;;;;;1.65;0.80;;;19.60;67.30;;;;;;5020075;28;20268;-54
2023/04/12 07:17:07;;;;;;;2.15;1.40;;;19.50;67.10;;;;;;5016317;28;20193;-56
2023/04/12 07:19:34;;;;;;;1.60;1.10;;;19.50;67.10;;;;;;5013264;28;20212;-50
2023/04/12 07:22:02;;;;;;;1.35;0.98;;;19.50;67.10;;;;;;5013184;28;20988;-51
2023/04/12 07:24:28;;;;;;;1.52;1.17;;;19.60;68.20;;;;;;5015474;28;20204;-51
2023/04/12 07:26:55;;;;;;;2.08;1.30;;;19.50;67.40;;;;;;5013837;28;20605;-53
2023/04/12 07:29:22;;;;;;;3.28;1.40;;;19.60;67.60;;;;;;5015429;28;20277;-56
2023/04/12 07:31:48;;;;;;;2.38;1.45;;;19.50;67.90;;;;;;5012748;28;20251;-54
2023/04/12 07:34:15;;;;;;;5.90;1.30;;;19.60;68.20;;;;;;5014657;28;20199;-52
2023/04/12 07:36:42;;;;;;;2.85;1.30;;;19.60;69.00;;;;;;5018026;28;20195;-53
2023/04/12 07:39:11;;;;;;;5.80;1.50;;;19.70;68.60;;;;;;5017017;28;20768;-53
2023/04/12 07:41:38;;;;;;;2.08;0.90;;;19.70;68.40;;;;;;5012930;28;20239;-50
2023/04/12 07:44:05;;;;;;;3.15;1.15;;;19.70;68.20;;;;;;5011596;28;20212;-54
2023/04/12 07:46:32;;;;;;;1.98;1.25;;;19.80;68.30;;;;;;5015924;28;20223;-54
2023/04/12 07:48:58;;;;;;;1.70;1.10;;;19.80;68.30;;;;;;5023443;28;20607;-52
2023/04/12 07:51:25;;;;;;;1.27;1.00;;;19.80;69.20;;;;;;5023572;28;20230;-54
2023/04/12 07:53:52;;;;;;;1.40;0.95;;;19.90;68.20;;;;;;5012519;28;20608;-54
2023/04/12 07:56:20;;;;;;;3.08;0.93;;;19.90;68.30;;;;;;5019089;28;20203;-55
2023/04/12 07:58:47;;;;;;;1.33;1.00;;;19.90;68.30;;;;;;5014197;28;20200;-50
2023/04/12 08:01:15;;;;;;;2.92;1.25;;;19.90;68.40;;;;;;5006767;28;20221;-52
2023/04/12 08:03:42;;;;;;;2.50;1.20;;;20.00;68.50;;;;;;5016861;28;20251;-55
2023/04/12 08:06:09;;;;;;;1.52;0.90;;;20.00;68.50;;;;;;5012574;28;20197;-53
2023/04/12 08:08:36;;;;;;;2.25;1.10;;;20.00;68.40;;;;;;5018022;28;20259;-52
2023/04/12 08:11:05;;;;;;;1.35;1.00;;;20.00;68.30;;;;;;5014557;28;20251;-50
2023/04/12 08:13:33;;;;;;;1.52;1.42;;;20.00;68.20;;;;;;5015044;28;20759;-54
2023/04/12 08:16:00;;;;;;;1.77;1.08;;;20.00;68.20;;;;;;5014269;28;20250;-53
2023/04/12 08:18:27;;;;;;;2.15;1.00;;;20.00;68.20;;;;;;5018769;28;20255;-55
2023/04/12 08:20:54;;;;;;;3.42;1.08;;;20.10;68.20;;;;;;5013907;28;20220;-52
2023/04/12 08:23:22;;;;;;;2.97;1.25;;;20.10;68.20;;;;;;5025628;28;20220;-52
2023/04/12 08:25:49;;;;;;;1.30;0.90;;;20.10;68.10;;;;;;5009961;28;20197;-51
2023/04/12 08:28:15;;;;;;;2.10;1.27;;;20.10;68.10;;;;;;5011518;28;20203;-52
2023/04/12 08:30:44;;;;;;;2.25;0.90;;;20.20;68.10;;;;;;5017846;28;20665;-53
2023/04/12 08:33:10;;;;;;;6.95;1.27;;;20.20;68.10;;;;;;5017658;28;20228;-56
2023/04/12 08:35:38;;;;;;;1.63;1.10;;;20.20;68.00;;;;;;5015295;28;20254;-53
2023/04/12 08:38:06;;;;;;;2.58;1.15;;;20.20;68.00;;;;;;5017760;28;20234;-51
2023/04/12 08:40:33;;;;;;;1.25;0.88;;;20.20;68.00;;;;;;5016095;28;20224;-49
2023/04/12 08:43:01;;;;;;;1.40;0.98;;;20.30;68.00;;;;;;5014772;28;20259;-52
2023/04/12 08:45:30;;;;;;;4.50;0.95;;;20.30;68.00;;;;;;5011216;28;20214;-53
2023/04/12 08:48:00;;;;;;;1.60;0.90;;;20.30;68.00;;;;;;5022140;28;20720;-50
2023/04/12 08:50:27;;;;;;;2.53;1.23;;;20.30;67.90;;;;;;5014933;28;20251;-51
2023/04/12 08:52:54;;;;;;;1.90;1.40;;;20.30;67.90;;;;;;5011869;28;20205;-54
2023/04/12 08:55:22;;;;;;;2.50;0.90;;;20.30;67.80;;;;;;5017872;28;20205;-53
2023/04/12 08:57:50;;;;;;;1.27;1.15;;;20.30;67.80;;;;;;5022995;28;20648;-53
2023/04/12 09:00:18;;;;;;;4.47;1.20;;;20.40;67.90;;;;;;5017293;28;20235;-50
2023/04/12 09:02:47;;;;;;;1.27;1.00;;;20.40;67.90;;;;;;5014543;28;20259;-51
2023/04/12 09:05:15;;;;;;;2.30;1.05;;;20.40;67.90;;;;;;5016051;28;20199;-54
2023/04/12 09:07:42;;;;;;;1.05;0.85;;;20.40;67.80;;;;;;5009880;28;20203;-51
2023/04/12 09:10:09;;;;;;;1.70;0.90;;;20.40;67.80;;;;;;5012253;28;20204;-53
2023/04/12 09:12:45;;;;;;;1.83;0.90;;;20.40;67.70;;;;;;5016994;28;20197;-52
2023/04/12 09:15:16;;;;;;;1.15;0.80;;;20.50;67.80;;;;;;5008437;28;20315;-56
2023/04/12 09:17:43;;;;;;;1.55;1.10;;;20.50;67.90;;;;;;5009258;28;20205;-55
2023/04/12 09:20:24;;;;;;;2.67;0.80;;;20.50;67.80;;;;;;5010924;28;20219;-53
2023/04/12 09:22:54;;;;;;;1.50;0.82;;;20.50;67.90;;;;;;5006594;28;20265;-50
2023/04/12 09:25:36;;;;;;;2.05;1.50;;;20.50;67.80;;;;;;5013891;28;20197;-51
2023/04/12 09:28:04;;;;;;;2.72;1.08;;;20.60;68.00;;;;;;5017444;28;20204;-54
2023/04/12 09:30:40;;;;;;;1.80;1.30;;;20.60;67.90;;;;;;5010580;28;20200;-54
2023/04/12 09:33:11;;;;;;;2.10;1.40;;;20.60;67.90;;;;;;5016874;28;20203;-52
2023/04/12 09:35:39;;;;;;;1.95;1.15;;;20.60;67.90;;;;;;5014473;28;20223;-50
2023/04/12 09:38:09;;;;;;;4.95;1.00;;;20.60;68.10;;;;;;5015082;28;20695;-51
2023/04/12 09:40:37;;;;;;;2.08;1.02;;;20.60;68.10;;;;;;5006178;28;20727;-52
2023/04/12 09:43:04;;;;;;;12.05;2.10;;;20.60;68.70;;;;;;5008901;28;20336;-54
2023/04/12 09:45:36;;;;;;;6.72;1.60;;;20.60;68.50;;;;;;5014945;28;20189;-51
2023/04/12 09:48:04;;;;;;;1.75;1.10;;;20.60;68.50;;;;;;5015510;28;20196;-53
2023/04/12 09:50:32;;;;;;;8.02;1.20;;;20.60;68.40;;;;;;5015234;28;20200;-49
2023/04/12 09:53:01;;;;;;;3.47;1.00;;;20.70;68.40;;;;;;5017828;28;20196;-49
2023/04/12 09:55:30;;;;;;;3.35;1.05;;;20.70;68.30;;;;;;5010149;28;20204;-51
2023/04/12 09:57:59;;;;;;;1.20;1.02;;;20.70;68.20;;;;;;5023846;28;20196;-50
2023/04/12 10:00:26;;;;;;;2.92;1.10;;;20.70;68.20;;;;;;5013426;28;20223;-51
2023/04/12 10:02:54;;;;;;;1.90;0.90;;;20.70;68.20;;;;;;5014433;28;20204;-50
2023/04/12 10:05:23;;;;;;;1.85;0.80;;;20.70;68.10;;;;;;5007681;28;20199;-52
2023/04/12 10:07:51;;;;;;;1.40;1.10;;;20.70;68.10;;;;;;5015148;28;20673;-52
2023/04/12 10:10:20;;;;;;;1.55;1.02;;;20.70;68.10;;;;;;5011738;28;20699;-53
2023/04/12 10:12:48;;;;;;;1.52;1.00;;;20.80;68.20;;;;;;5010114;28;20205;-54
2023/04/12 10:15:16;;;;;;;4.88;1.20;;;20.80;68.40;;;;;;5020650;28;20199;-53
2023/04/12 10:17:45;;;;;;;1.40;0.95;;;20.80;68.10;;;;;;5009199;28;20680;-53
2023/04/12 10:20:13;;;;;;;1.60;1.17;;;20.80;68.00;;;;;;5019780;28;20203;-52
2023/04/12 10:22:41;;;;;;;1.67;1.08;;;20.80;67.90;;;;;;5022278;28;20228;-51
2023/04/12 10:25:12;;;;;;;1.90;1.08;;;20.90;68.00;;;;;;5021318;28;20228;-54
2023/04/12 10:27:42;;;;;;;2.28;1.10;;;20.90;67.90;;;;;;5025022;28;20254;-52
2023/04/12 10:30:25;;;;;;;2.42;0.93;;;20.90;67.90;;;;;;5021485;28;20219;-50
2023/04/12 10:33:12;;;;;;;1.10;0.83;;;20.90;67.90;;;;;;5022401;28;20695;-63
2023/04/12 10:36:01;;;;;;;3.33;1.20;;;20.90;68.10;;;;;;5023017;28;20545;-61
2023/04/12 10:38:31;;;;;;;6.90;1.20;;;20.90;68.10;;;;;;5018464;28;20300;-61
2023/04/12 10:41:10;;;;;;;3.65;1.00;;;20.90;68.10;;;;;;5017477;28;20226;-59
2023/04/12 10:43:39;;;;;;;2.65;1.23;;;21.00;68.30;;;;;;5020093;28;20207;-61
2023/04/12 10:46:06;;;;;;;1.20;1.10;;;21.00;68.30;;;;;;5023687;28;20212;-62
2023/04/12 10:48:34;;;;;;;3.13;1.27;;;21.00;68.40;;;;;;5022585;28;20192;-56
2023/04/12 10:51:16;;;;;;;1.42;1.00;;;21.00;68.30;;;;;;5028616;28;20204;-55
2023/04/12 10:53:43;;;;;;;1.40;0.90;;;21.10;68.60;;;;;;5013167;28;20211;-53
2023/04/12 10:56:35;;;;;;;1.70;1.10;;;21.10;68.60;;;;;;5025582;28;20457;-61
2023/04/12 10:59:04;;;;;;;4.45;1.20;;;21.10;68.70;;;;;;5022829;28;20462;-60
2023/04/12 11:01:31;;;;;;;1.30;0.90;;;21.20;68.70;;;;;;5020303;28;20222;-53
2023/04/12 11:04:15;;;;;;;1.73;0.85;;;21.20;68.80;;;;;;5021584;28;20292;-54
2023/04/12 11:06:56;;;;;;;3.17;1.10;;;21.20;68.90;;;;;;5011406;28;20846;-62
2023/04/12 11:09:25;;;;;;;1.10;0.80;;;21.20;69.00;;;;;;4991689;28;20219;-57
2023/04/12 11:11:52;;;;;;;2.65;1.05;;;21.20;69.20;;;;;;5011131;28;20207;-59
2023/04/12 11:14:27;;;;;;;1.37;1.10;;;21.20;69.30;;;;;;5010099;28;20193;-53
2023/04/12 11:17:22;;;;;;;3.38;1.10;;;21.20;69.20;;;;;;5012209;28;20970;-59
2023/04/12 11:19:59;;;;;;;4.68;1.20;;;21.20;69.30;;;;;;5010843;28;20711;-56
2023/04/12 11:22:29;;;;;;;3.72;1.40;;;21.20;69.70;;;;;;5002696;28;20231;-62
2023/04/12 11:24:57;;;;;;;3.33;1.00;;;21.30;69.70;;;;;;5002828;28;20228;-61
2023/04/12 11:27:25;;;;;;;1.73;1.20;;;21.30;69.70;;;;;;5017357;28;20244;-60
2023/04/12 11:29:54;;;;;;;2.60;1.03;;;21.30;69.80;;;;;;5015539;28;20463;-62
2023/04/12 11:32:22;;;;;;;1.70;0.97;;;21.40;70.00;;;;;;5015980;28;20471;-62
2023/04/12 11:34:50;;;;;;;3.83;1.20;;;21.40;70.00;;;;;;5014728;28;20714;-63
2023/04/12 11:37:18;;;;;;;1.70;1.20;;;21.50;70.20;;;;;;5003675;28;20800;-58
2023/04/12 11:39:47;;;;;;;5.20;2.50;;;21.50;70.10;;;;;;5015637;28;20537;-59
2023/04/12 11:42:15;;;;;;;7.90;2.07;;;21.60;70.30;;;;;;5009914;28;20483;-59
2023/04/12 11:44:43;;;;;;;1.70;1.10;;;21.70;70.30;;;;;;5004350;28;20546;-59
2023/04/12 11:47:16;;;;;;;3.20;0.93;;;21.70;70.10;;;;;;5018881;28;20955;-60
2023/04/12 11:49:47;;;;;;;1.90;0.93;;;21.70;70.00;;;;;;5025775;28;20455;-55
2023/04/12 11:52:15;;;;;;;2.80;1.10;;;21.80;70.00;;;;;;5012182;28;20459;-55
2023/04/12 11:54:46;;;;;;;2.80;0.90;;;21.80;70.00;;;;;;5006250;28;20542;-53
2023/04/12 11:57:14;;;;;;;2.60;1.27;;;21.80;69.90;;;;;;5013345;28;20458;-48
2023/04/12 11:59:44;;;;;;;2.63;1.40;;;21.90;69.90;;;;;;5021543;28;20931;-57
2023/04/12 12:02:11;;;;;;;4.30;1.10;;;21.90;69.90;;;;;;5021319;28;20545;-58
2023/04/12 12:04:40;;;;;;;1.60;0.90;;;21.90;69.80;;;;;;5023703;28;20462;-58
2023/04/12 12:07:07;;;;;;;3.87;0.90;;;21.90;69.70;;;;;;5018806;28;20452;-62
2023/04/12 12:09:35;;;;;;;2.70;1.10;;;22.00;69.90;;;;;;5012775;28;20467;-56
2023/04/12 12:12:02;;;;;;;2.73;1.07;;;22.00;69.80;;;;;;5014801;28;20892;-48
2023/04/12 12:14:33;;;;;;;1.70;1.07;;;22.00;69.80;;;;;;5013074;28;20511;-57
2023/04/12 12:17:00;;;;;;;1.60;0.90;;;22.00;69.80;;;;;;5011000;28;20467;-54
2023/04/12 12:19:35;;;;;;;1.30;0.90;;;22.00;69.80;;;;;;5018346;28;20459;-58
2023/04/12 12:22:11;;;;;;;2.43;1.10;;;22.00;70.70;;;;;;5008617;28;20548;-60
2023/04/12 12:24:39;;;;;;;2.33;0.80;;;22.00;69.80;;;;;;5011855;28;20489;-60
2023/04/12 12:27:05;;;;;;;7.30;1.10;;;22.00;69.70;;;;;;5015045;28;20464;-59
2023/04/12 12:29:36;;;;;;;2.43;0.93;;;22.10;70.00;;;;;;5012666;28;20466;-58
2023/04/12 12:32:09;;;;;;;1.37;1.00;;;22.00;69.80;;;;;;5011970;28;20549;-57
2023/04/12 12:34:36;;;;;;;2.20;1.63;;;22.00;69.70;;;;;;5015040;28;20474;-55
2023/04/12 12:37:16;;;;;;;2.80;1.40;;;22.10;69.80;;;;;;5019847;28;20550;-58
2023/04/12 12:40:10;;;;;;;3.00;1.40;;;22.10;69.70;;;;;;5015486;28;20455;-61
2023/04/12 12:42:38;;;;;;;5.70;1.57;;;22.10;69.70;;;;;;5015798;28;20618;-59
2023/04/12 12:45:05;;;;;;;1.93;1.00;;;22.10;69.70;;;;;;5014369;28;20460;-59
2023/04/12 12:47:32;;;;;;;1.97;1.10;;;22.10;69.70;;;;;;5018659;28;20452;-56
2023/04/12 12:49:59;;;;;;;2.90;0.93;;;22.10;69.60;;;;;;5012131;28;20586;-52
2023/04/12 12:52:27;;;;;;;3.47;1.10;;;22.10;68.90;;;;;;5019270;28;20463;-54
2023/04/12 12:54:54;;;;;;;1.50;1.03;;;22.00;67.40;;;;;;5006550;28;20443;-57